Time;durP1;ratioP1;P1;durP2;ratioP2;P2;SDS_P1;SDS_P2;PMS_P1;PMS_P2;Temp;Humidity;BMP_temperature;BMP_pressure;BME280_temperature;BME280_humidity;BME280_pressure;Samples;Min_cycle;Max_cycle;Signal;HPM_P1;HPM_P2
2022/03/29 00:00:13;;;;;;;33.33;14.35;;;;;;;7.68;83.13;101685.66;5009969;28;20026;-84
2022/03/29 00:02:39;;;;;;;33.95;14.25;;;;;;;7.66;83.09;101689.09;4974752;28;20125;-85
2022/03/29 00:05:05;;;;;;;32.97;14.20;;;;;;;7.63;83.65;101687.38;4977962;28;20039;-84
2022/03/29 00:07:30;;;;;;;31.88;15.32;;;;;;;7.59;83.43;101679.63;4980869;28;20103;-85
2022/03/29 00:09:56;;;;;;;30.98;14.82;;;;;;;7.54;84.37;101675.31;4997258;28;20045;-85
2022/03/29 00:12:21;;;;;;;38.13;15.77;;;;;;;7.49;84.61;101673.59;4986203;28;20505;-85
2022/03/29 00:14:46;;;;;;;37.33;15.38;;;;;;;7.48;84.39;101683.06;4980253;28;20488;-85
2022/03/29 00:17:12;;;;;;;34.42;15.02;;;;;;;7.44;84.37;101673.56;4977153;28;20443;-85
2022/03/29 00:19:37;;;;;;;34.88;16.45;;;;;;;7.41;84.75;101668.41;4983730;28;20053;-84
2022/03/29 00:22:02;;;;;;;32.67;15.63;;;;;;;7.40;84.95;101668.41;4986708;28;20031;-85
2022/03/29 00:24:28;;;;;;;36.13;15.65;;;;;;;7.36;84.53;101664.97;4986302;28;20046;-85
2022/03/29 00:26:53;;;;;;;34.43;14.90;;;;;;;7.33;85.02;101664.09;4979626;28;20229;-85
2022/03/29 00:29:18;;;;;;;36.08;15.57;;;;;;;7.28;84.87;101664.09;4974782;28;20286;-85
2022/03/29 00:31:43;;;;;;;34.37;15.23;;;;;;;7.24;85.08;101658.91;4973876;28;20026;-85
2022/03/29 00:34:09;;;;;;;33.00;15.23;;;;;;;7.21;85.44;101658.91;4991990;28;20694;-85
2022/03/29 00:36:34;;;;;;;31.77;15.18;;;;;;;7.19;85.22;101655.44;4983010;28;20317;-85
2022/03/29 00:39:00;;;;;;;32.47;14.98;;;;;;;7.14;85.65;101648.56;4978891;28;20029;-85
2022/03/29 00:41:26;;;;;;;35.58;15.68;;;;;;;7.11;85.42;101638.25;5017781;28;20057;-85
2022/03/29 00:43:51;;;;;;;34.90;14.90;;;;;;;7.09;85.11;101641.69;4985414;28;20447;-85
2022/03/29 00:46:17;;;;;;;31.20;14.35;;;;;;;7.05;84.99;101640.78;4975729;28;20078;-84
2022/03/29 00:48:43;;;;;;;36.17;15.48;;;;;;;7.04;85.92;101648.53;4980392;28;20035;-85
2022/03/29 00:51:11;;;;;;;35.35;14.98;;;;;;;7.01;85.66;101636.50;4977442;28;20022;-85
2022/03/29 00:53:38;;;;;;;35.28;15.63;;;;;;;6.97;85.38;101631.31;4981576;28;20034;-84
2022/03/29 00:56:04;;;;;;;36.42;14.73;;;;;;;6.95;85.35;101628.75;4976221;28;20038;-85
2022/03/29 00:58:30;;;;;;;32.83;14.60;;;;;;;6.91;84.79;101631.28;4978442;28;20515;-85
2022/03/29 01:00:58;;;;;;;34.40;14.80;;;;;;;6.85;85.37;101624.41;4982987;28;20068;-84
2022/03/29 01:03:24;;;;;;;31.30;15.32;;;;;;;6.81;85.52;101630.41;4984896;28;20042;-85
2022/03/29 01:05:49;;;;;;;39.22;15.82;;;;;;;6.79;86.78;101621.81;4979176;28;20030;-84
2022/03/29 01:08:15;;;;;;;37.80;16.27;;;;;;;6.80;86.77;101620.09;5017116;28;20049;-85
2022/03/29 01:10:43;;;;;;;35.35;15.65;;;;;;;6.78;87.93;101617.50;4990441;28;20026;-84
2022/03/29 01:13:09;;;;;;;35.88;15.23;;;;;;;6.77;87.23;101610.63;4984439;28;20045;-84
2022/03/29 01:15:36;;;;;;;35.67;15.98;;;;;;;6.75;87.93;101612.34;4975304;28;20027;-85
2022/03/29 01:18:02;;;;;;;35.33;16.38;;;;;;;6.73;88.11;101609.75;4980682;28;20124;-84
2022/03/29 01:20:28;;;;;;;37.95;16.67;;;;;;;6.75;88.56;101609.78;4973103;28;20122;-85
2022/03/29 01:22:55;;;;;;;43.72;17.35;;;;;;;6.75;88.79;101609.78;5012585;28;20029;-84
2022/03/29 01:25:34;;;;;;;38.67;16.45;;;;;;;6.73;88.36;101606.31;4988490;28;20022;-84
2022/03/29 01:28:01;;;;;;;40.58;17.73;;;;;;;6.72;88.98;101607.16;4980952;28;20516;-85
2022/03/29 01:30:27;;;;;;;40.17;17.70;;;;;;;6.72;87.75;101600.31;4980671;28;20034;-85
2022/03/29 01:32:53;;;;;;;41.38;16.67;;;;;;;6.69;88.40;101597.69;4983638;28;20041;-85
2022/03/29 01:35:21;;;;;;;41.67;18.30;;;;;;;6.72;88.67;101604.59;4985006;28;20093;-84
2022/03/29 01:37:47;;;;;;;41.85;17.52;;;;;;;6.71;88.54;101597.72;4979448;28;20475;-84
2022/03/29 01:40:15;;;;;;;40.42;17.15;;;;;;;6.70;88.73;101598.56;4972436;28;20034;-85
2022/03/29 01:42:47;;;;;;;42.58;17.25;;;;;;;6.68;88.83;101592.56;4983399;28;20030;-85
2022/03/29 01:45:15;;;;;;;43.05;17.80;;;;;;;6.68;88.73;101592.56;4977803;28;20093;-85
2022/03/29 01:47:43;;;;;;;49.05;19.40;;;;;;;6.66;89.38;101596.84;4988075;28;20138;-84
2022/03/29 01:50:13;;;;;;;46.88;19.10;;;;;;;6.65;89.91;101590.81;4983821;28;20054;-84
2022/03/29 01:52:45;;;;;;;46.00;18.88;;;;;;;6.63;89.81;101587.38;4989590;28;20030;-85
2022/03/29 01:55:11;;;;;;;42.03;18.33;;;;;;;6.61;89.17;101586.53;4977193;28;20218;-85
2022/03/29 01:57:37;;;;;;;43.30;18.23;;;;;;;6.57;88.37;101579.63;4983153;28;20023;-84
2022/03/29 02:02:52;;;;;;;46.15;19.45;;;;;;;6.52;89.93;101580.47;4978688;28;20120;-85
2022/03/29 02:05:19;;;;;;;48.17;19.75;;;;;;;6.49;90.16;101575.28;4979828;28;20531;-85
2022/03/29 02:07:45;;;;;;;44.78;18.65;;;;;;;6.46;89.76;101575.28;4984886;28;20034;-84
2022/03/29 02:10:11;;;;;;;47.50;19.63;;;;;;;6.46;90.04;101568.44;4972342;28;20027;-84
2022/03/29 02:12:36;;;;;;;48.70;20.15;;;;;;;6.44;90.64;101572.69;4984912;28;20511;-85
2022/03/29 02:15:03;;;;;;;45.85;18.77;;;;;;;6.45;90.29;101563.25;4980146;28;20162;-85
2022/03/29 02:17:28;;;;;;;48.15;19.65;;;;;;;6.44;90.57;101561.53;4982056;28;20039;-85
2022/03/29 02:19:54;;;;;;;53.65;21.70;;;;;;;6.45;91.09;101558.97;4980514;28;20065;-84
2022/03/29 02:22:19;;;;;;;57.15;21.35;;;;;;;6.43;90.75;101550.38;4987555;28;20042;-85
2022/03/29 02:24:45;;;;;;;52.33;20.88;;;;;;;6.47;90.95;101548.69;4983267;28;20027;-85
2022/03/29 02:27:10;;;;;;;54.25;21.67;;;;;;;6.48;91.37;101548.69;4981597;28;20095;-84
2022/03/29 02:29:38;;;;;;;58.03;22.20;;;;;;;6.44;91.26;101541.78;4977053;28;20034;-85
2022/03/29 02:32:05;;;;;;;55.38;21.17;;;;;;;6.47;91.38;101540.97;4985030;28;20041;-85
2022/03/29 02:34:31;;;;;;;53.65;22.45;;;;;;;6.48;91.28;101543.56;4984281;28;20034;-85
2022/03/29 02:36:56;;;;;;;57.47;22.13;;;;;;;6.48;91.82;101534.97;4983581;28;20041;-84
2022/03/29 02:39:21;;;;;;;59.97;23.48;;;;;;;6.47;91.92;101530.66;4971395;28;20050;-85
2022/03/29 02:41:47;;;;;;;60.20;22.77;;;;;;;6.48;91.62;101528.09;4981502;28;20026;-85
2022/03/29 02:44:12;;;;;;;55.70;22.40;;;;;;;6.47;91.56;101516.06;4977609;28;20286;-85
2022/03/29 02:46:37;;;;;;;57.25;22.98;;;;;;;6.48;91.82;101522.09;4983390;28;20050;-84
2022/03/29 02:49:03;;;;;;;58.40;22.85;;;;;;;6.47;91.28;101515.22;4976659;28;20110;-84
2022/03/29 02:51:28;;;;;;;57.25;21.90;;;;;;;6.46;91.40;101508.34;4982037;28;20033;-85
2022/03/29 02:53:54;;;;;;;56.15;22.27;;;;;;;6.46;91.40;101505.75;4974035;28;20218;-85
2022/03/29 02:56:22;;;;;;;57.50;22.73;;;;;;;6.45;91.99;101501.47;4980044;28;20176;-85
2022/03/29 02:58:48;;;;;;;61.10;23.75;;;;;;;6.48;91.59;101510.06;4974173;28;20499;-85
2022/03/29 03:01:13;;;;;;;58.80;23.48;;;;;;;6.46;91.76;101509.19;4985188;28;20108;-85
2022/03/29 03:03:39;;;;;;;58.45;23.90;;;;;;;6.45;91.47;101499.75;4974819;28;20063;-84
2022/03/29 03:06:06;;;;;;;58.83;23.10;;;;;;;6.43;92.08;101500.59;4973347;28;20133;-84
2022/03/29 03:08:32;;;;;;;61.15;23.85;;;;;;;6.42;92.12;101501.44;4975569;28;20297;-84
2022/03/29 03:10:57;;;;;;;61.20;23.52;;;;;;;6.40;92.03;101496.31;4972489;28;20038;-85
2022/03/29 03:13:23;;;;;;;60.55;24.35;;;;;;;6.38;92.20;101502.28;4975792;28;20124;-85
2022/03/29 03:15:48;;;;;;;60.25;23.27;;;;;;;6.34;92.07;101498.84;4988756;28;20499;-85
2022/03/29 03:18:14;;;;;;;62.13;23.60;;;;;;;6.33;92.04;101494.56;4978500;28;20037;-85
2022/03/29 03:20:39;;;;;;;58.38;23.27;;;;;;;6.30;92.29;101489.38;4975125;28;20030;-85
2022/03/29 03:23:04;;;;;;;56.03;23.27;;;;;;;6.25;91.86;101484.22;4979725;28;20491;-85
2022/03/29 03:25:30;;;;;;;61.60;24.23;;;;;;;6.25;92.75;101489.38;4982128;28;20450;-85
2022/03/29 03:27:55;;;;;;;60.10;23.52;;;;;;;6.21;92.57;101487.63;4987575;28;20069;-85
2022/03/29 03:30:21;;;;;;;58.60;23.63;;;;;;;6.20;92.62;101483.34;4979092;28;20061;-85
2022/03/29 03:32:46;;;;;;;57.67;23.95;;;;;;;6.16;92.48;101483.31;4985615;28;20277;-85
2022/03/29 03:35:12;;;;;;;59.90;23.50;;;;;;;6.16;92.74;101491.03;4986870;28;20037;-84
2022/03/29 03:37:38;;;;;;;58.65;23.30;;;;;;;6.13;92.54;101480.75;4986373;28;20041;-85
2022/03/29 03:40:06;;;;;;;59.80;23.90;;;;;;;6.10;93.45;101479.00;4980391;28;20026;-83
2022/03/29 03:42:32;;;;;;;67.65;25.77;;;;;;;6.06;93.15;101482.44;4974554;28;20026;-83
2022/03/29 03:44:58;;;;;;;62.95;24.80;;;;;;;6.04;93.49;101483.25;4976723;28;20061;-83
2022/03/29 03:47:25;;;;;;;61.45;23.88;;;;;;;6.01;92.81;101475.50;4974033;28;20364;-83
2022/03/29 03:49:50;;;;;;;67.60;25.17;;;;;;;6.00;93.22;101478.97;4985451;28;20039;-83
2022/03/29 03:52:16;;;;;;;61.90;25.15;;;;;;;6.00;93.18;101478.97;4979508;28;20065;-82
2022/03/29 03:54:41;;;;;;;64.88;24.92;;;;;;;6.00;93.17;101473.81;4987030;28;20022;-83
2022/03/29 03:57:07;;;;;;;65.28;25.40;;;;;;;5.96;93.61;101472.91;4970974;28;20463;-82
2022/03/29 03:59:32;;;;;;;62.47;24.90;;;;;;;5.96;93.32;101465.19;4980031;28;20231;-82
2022/03/29 04:01:58;;;;;;;64.60;24.27;;;;;;;5.95;93.42;101459.19;4971679;28;20108;-83
2022/03/29 04:04:23;;;;;;;67.68;25.65;;;;;;;5.93;93.30;101460.06;4982935;28;20407;-82
2022/03/29 04:06:49;;;;;;;64.03;25.40;;;;;;;5.92;93.67;101453.19;4977187;28;20081;-83
2022/03/29 04:09:14;;;;;;;65.57;25.20;;;;;;;5.93;93.44;101462.63;4986747;28;20030;-82
2022/03/29 04:11:39;;;;;;;66.23;25.73;;;;;;;5.89;93.60;101448.00;4983335;28;20397;-83
2022/03/29 04:14:04;;;;;;;63.00;24.90;;;;;;;5.89;93.55;101454.03;5017546;28;20284;-83
2022/03/29 04:16:30;;;;;;;71.18;26.63;;;;;;;5.90;93.80;101449.75;4988130;28;20081;-83
2022/03/29 04:18:56;;;;;;;69.65;26.02;;;;;;;5.89;93.53;101448.88;4981672;28;20023;-82
2022/03/29 04:21:21;;;;;;;64.22;24.73;;;;;;;5.90;93.79;101450.59;4977170;28;20027;-83
2022/03/29 04:23:47;;;;;;;67.95;26.42;;;;;;;5.90;93.74;101449.75;4984024;28;20029;-83
2022/03/29 04:26:12;;;;;;;75.40;27.92;;;;;;;5.89;94.04;101443.72;4978010;28;20037;-84
2022/03/29 04:28:37;;;;;;;65.38;24.90;;;;;;;5.89;93.60;101441.16;4983801;28;20484;-84
2022/03/29 04:31:03;;;;;;;74.78;26.60;;;;;;;5.90;94.11;101436.88;4992828;28;20030;-83
2022/03/29 04:33:29;;;;;;;72.22;25.90;;;;;;;5.88;94.13;101442.00;4991476;28;20026;-83
2022/03/29 04:35:55;;;;;;;69.93;24.70;;;;;;;5.88;94.43;101441.13;4977335;28;20074;-84
2022/03/29 04:38:21;;;;;;;72.32;25.33;;;;;;;5.87;93.98;101441.97;4974494;28;20026;-84
2022/03/29 04:40:46;;;;;;;66.18;24.88;;;;;;;5.89;94.47;101437.72;4980375;28;20050;-84
2022/03/29 04:43:12;;;;;;;68.15;24.88;;;;;;;5.89;94.34;101438.59;4982184;28;20487;-84
2022/03/29 04:45:37;;;;;;;69.55;25.13;;;;;;;5.89;94.59;101432.56;4981483;28;20189;-84
2022/03/29 04:48:03;;;;;;;71.07;25.98;;;;;;;5.90;94.64;101424.88;4980149;28;20073;-84
2022/03/29 04:50:29;;;;;;;69.78;24.75;;;;;;;5.93;94.76;101427.47;4990294;28;20038;-84
2022/03/29 04:52:55;;;;;;;74.40;26.73;;;;;;;5.93;94.75;101426.63;4987205;28;20026;-83
2022/03/29 04:55:20;;;;;;;75.97;27.10;;;;;;;5.97;94.62;101425.75;4983210;28;20102;-84
2022/03/29 04:57:48;;;;;;;78.60;27.85;;;;;;;6.03;94.83;101430.06;4976502;28;20077;-83
2022/03/29 05:00:16;;;;;;;74.60;25.60;;;;;;;6.04;94.64;101430.06;4983191;28;20050;-83
2022/03/29 05:02:46;;;;;;;73.72;26.17;;;;;;;6.04;94.60;101426.66;4973973;28;20034;-83
2022/03/29 05:05:12;;;;;;;77.35;27.60;;;;;;;6.07;94.76;101424.97;4990263;28;20026;-83
2022/03/29 05:07:38;;;;;;;75.60;26.88;;;;;;;6.09;94.97;101419.78;4982083;28;20085;-84
2022/03/29 05:10:04;;;;;;;78.00;26.67;;;;;;;6.10;94.73;101417.22;4982498;28;20106;-84
2022/03/29 05:12:30;;;;;;;77.15;27.25;;;;;;;6.12;94.72;101412.09;4970304;28;20097;-83
2022/03/29 05:14:58;;;;;;;80.85;27.58;;;;;;;6.10;94.54;101414.66;4972404;28;20035;-83
2022/03/29 05:17:23;;;;;;;79.07;26.85;;;;;;;6.08;94.76;101412.91;4971748;28;20039;-84
2022/03/29 05:19:49;;;;;;;75.43;27.02;;;;;;;6.07;94.99;101412.09;4965276;28;20028;-84
2022/03/29 05:22:14;;;;;;;79.75;26.95;;;;;;;6.10;95.01;101419.81;5000697;28;20455;-84
2022/03/29 05:24:39;;;;;;;78.07;27.50;;;;;;;6.12;95.03;101415.53;4961501;28;20069;-84
2022/03/29 05:27:04;;;;;;;76.75;27.60;;;;;;;6.12;95.09;101412.09;4991321;28;20491;-83
2022/03/29 05:29:30;;;;;;;80.47;28.30;;;;;;;6.12;95.11;101415.53;4961110;28;20054;-84
2022/03/29 05:31:57;;;;;;;78.53;26.20;;;;;;;6.12;95.06;101417.25;4961422;28;20121;-83
2022/03/29 05:34:22;;;;;;;81.68;26.60;;;;;;;6.09;94.85;101412.94;4965966;28;20045;-84
2022/03/29 05:36:48;;;;;;;82.95;27.40;;;;;;;6.08;95.04;101407.78;4971535;28;20022;-84
2022/03/29 05:39:13;;;;;;;80.22;26.90;;;;;;;6.08;95.31;101415.50;4962756;28;20463;-84
2022/03/29 05:41:39;;;;;;;84.15;27.08;;;;;;;6.08;95.57;101407.78;4971147;28;20041;-84
2022/03/29 05:44:05;;;;;;;85.90;27.85;;;;;;;6.06;95.94;101402.66;4969304;28;20026;-84
2022/03/29 05:49:14;;;;;;;88.07;28.63;;;;;;;6.14;95.70;101402.69;4977616;28;20041;-84
2022/03/29 05:51:42;;;;;;;76.75;26.33;;;;;;;6.12;95.49;101392.38;4984026;28;20022;-83
2022/03/29 05:54:07;;;;;;;79.68;24.95;;;;;;;6.09;95.62;101392.34;4981503;28;20077;-83
2022/03/29 05:56:33;;;;;;;74.18;25.15;;;;;;;6.12;95.19;101402.66;4980394;28;20081;-84
2022/03/29 05:58:59;;;;;;;73.15;24.08;;;;;;;6.09;95.36;101404.34;4985284;28;20030;-84
2022/03/29 06:01:25;;;;;;;75.32;25.88;;;;;;;6.09;95.45;101406.94;4984917;28;20022;-84
2022/03/29 06:03:50;;;;;;;69.22;24.90;;;;;;;6.12;95.22;101409.53;4974584;28;20030;-83
2022/03/29 06:06:15;;;;;;;72.28;25.77;;;;;;;6.17;95.41;101400.09;4977659;28;20045;-83
2022/03/29 06:08:42;;;;;;;77.78;26.35;;;;;;;6.17;95.44;101392.38;4985518;28;20066;-83
2022/03/29 06:11:07;;;;;;;76.97;27.08;;;;;;;6.18;95.89;101394.09;4979215;28;20492;-84
2022/03/29 06:13:33;;;;;;;79.90;25.45;;;;;;;6.16;95.47;101401.81;4982565;28;20448;-84
2022/03/29 06:15:59;;;;;;;81.00;26.58;;;;;;;6.14;96.09;101397.53;4979707;28;20018;-84
2022/03/29 06:18:25;;;;;;;77.55;25.95;;;;;;;6.17;96.30;101407.81;4983146;28;20392;-84
2022/03/29 06:20:51;;;;;;;76.85;26.77;;;;;;;6.20;96.28;101413.84;4980758;28;20093;-84
2022/03/29 06:23:16;;;;;;;77.95;25.38;;;;;;;6.19;96.22;101414.69;4989800;28;20022;-84
2022/03/29 06:25:42;;;;;;;78.88;25.65;;;;;;;6.15;96.25;101402.66;4979655;28;20034;-84
2022/03/29 06:28:10;;;;;;;75.47;25.13;;;;;;;6.12;96.08;101409.53;4965204;28;20031;-84
2022/03/29 06:30:39;;;;;;;76.55;25.10;;;;;;;6.09;96.26;101402.63;4971416;28;20034;-84
2022/03/29 06:33:04;;;;;;;76.57;24.83;;;;;;;6.05;95.90;101402.63;4972620;28;20169;-84
2022/03/29 06:35:31;;;;;;;78.95;26.60;;;;;;;6.04;96.48;101409.50;4959093;28;20023;-84
2022/03/29 06:37:58;;;;;;;76.65;25.08;;;;;;;6.10;96.74;101400.94;5000506;28;20029;-84
2022/03/29 06:40:26;;;;;;;74.63;24.15;;;;;;;6.17;96.71;101402.66;4971396;28;20508;-84
2022/03/29 06:42:53;;;;;;;72.75;23.38;;;;;;;6.20;96.15;101410.41;4972400;28;20033;-84
2022/03/29 06:45:19;;;;;;;74.43;24.88;;;;;;;6.20;96.25;101413.84;4967001;28;20018;-84
2022/03/29 06:47:45;;;;;;;76.75;26.85;;;;;;;6.20;96.46;101403.56;5002712;28;20120;-84
2022/03/29 06:50:11;;;;;;;80.07;25.52;;;;;;;6.22;96.41;101406.09;4971561;28;20106;-84
2022/03/29 06:52:38;;;;;;;87.22;27.83;;;;;;;6.23;96.62;101411.28;4972310;28;20061;-84
2022/03/29 06:55:06;;;;;;;86.88;28.88;;;;;;;6.26;96.67;101400.13;4969998;28;20030;-84
2022/03/29 06:57:31;;;;;;;81.47;27.25;;;;;;;6.31;96.32;101408.72;4968180;28;20022;-84
2022/03/29 06:59:56;;;;;;;82.82;26.83;;;;;;;6.35;96.17;101413.88;4971283;28;20034;-84
2022/03/29 07:02:22;;;;;;;81.60;25.92;;;;;;;6.37;96.37;101395.84;4980298;28;20764;-84
2022/03/29 07:04:47;;;;;;;77.28;24.88;;;;;;;6.43;95.80;101403.59;4970233;28;20042;-84
2022/03/29 07:07:14;;;;;;;71.55;23.95;;;;;;;6.47;95.53;101404.47;4975888;28;20018;-84
2022/03/29 07:12:24;;;;;;;74.82;25.58;;;;;;;6.57;95.46;101407.06;4971373;28;20053;-84
2022/03/29 07:14:50;;;;;;;76.35;25.08;;;;;;;6.59;95.29;101401.91;4971240;28;20026;-84
2022/03/29 07:17:17;;;;;;;82.93;25.40;;;;;;;6.59;95.19;101400.22;4981074;28;20037;-83
2022/03/29 07:19:43;;;;;;;81.53;26.17;;;;;;;6.60;94.69;101395.91;4968641;28;20498;-83
2022/03/29 07:22:08;;;;;;;81.85;25.23;;;;;;;6.65;94.57;101401.94;4976661;28;20018;-83
2022/03/29 07:24:33;;;;;;;72.57;24.45;;;;;;;6.64;93.67;101403.63;4967345;28;20055;-83
2022/03/29 07:26:59;;;;;;;72.10;25.75;;;;;;;6.55;94.28;101395.88;4975480;28;20058;-83
2022/03/29 07:29:25;;;;;;;78.90;25.63;;;;;;;6.56;94.30;101400.19;4971381;28;20031;-83
2022/03/29 07:31:52;;;;;;;82.30;28.35;;;;;;;6.53;94.88;101401.91;4972049;28;20104;-83
2022/03/29 07:34:18;;;;;;;85.85;29.85;;;;;;;6.52;94.98;101398.47;4984939;28;20030;-83
2022/03/29 07:36:43;;;;;;;81.20;26.70;;;;;;;6.57;95.16;101406.19;4980651;28;20041;-83
2022/03/29 07:39:09;;;;;;;80.32;26.88;;;;;;;6.66;94.97;101398.50;4975060;28;20499;-83
2022/03/29 07:41:34;;;;;;;75.00;24.67;;;;;;;6.72;94.47;101396.78;4971796;28;20031;-83
2022/03/29 07:44:00;;;;;;;73.13;24.63;;;;;;;6.73;94.07;101397.66;4977726;28;20039;-83
2022/03/29 07:46:25;;;;;;;74.53;25.60;;;;;;;6.71;93.72;101405.38;5006513;28;20084;-83
2022/03/29 07:48:53;;;;;;;71.97;23.33;;;;;;;6.67;93.39;101408.81;4979283;28;20472;-83
2022/03/29 07:51:19;;;;;;;68.15;23.38;;;;;;;6.61;93.73;101413.94;4978830;28;20511;-83
2022/03/29 07:53:45;;;;;;;68.88;23.58;;;;;;;6.68;93.75;101404.53;4981228;28;20035;-83
2022/03/29 07:56:11;;;;;;;72.60;23.67;;;;;;;6.73;94.29;101405.38;4971039;28;20537;-83
2022/03/29 07:58:36;;;;;;;67.97;23.33;;;;;;;6.75;93.90;101401.09;4984539;28;20105;-83
2022/03/29 08:01:02;;;;;;;71.28;24.38;;;;;;;6.75;93.79;101404.50;5011093;28;20033;-83
2022/03/29 08:03:33;;;;;;;73.85;23.90;;;;;;;6.75;93.65;101398.50;4976991;28;20037;-83
2022/03/29 08:06:00;;;;;;;72.63;24.10;;;;;;;6.78;93.72;101402.78;4980168;28;20113;-84
2022/03/29 08:08:26;;;;;;;80.72;26.15;;;;;;;6.80;93.59;101406.25;4983298;28;20031;-84
2022/03/29 08:10:51;;;;;;;77.05;25.75;;;;;;;6.80;93.20;101409.69;4971228;28;20037;-83
2022/03/29 08:13:18;;;;;;;74.47;25.27;;;;;;;6.81;93.68;101411.41;5013199;28;20037;-83
2022/03/29 08:15:45;;;;;;;71.18;24.35;;;;;;;6.84;93.57;101400.22;4976863;28;20348;-83
2022/03/29 08:18:11;;;;;;;82.72;27.85;;;;;;;6.87;93.59;101405.38;4980876;28;20066;-83
2022/03/29 08:20:37;;;;;;;74.50;23.90;;;;;;;6.87;93.19;101406.25;5016595;28;20053;-83
2022/03/29 08:23:03;;;;;;;79.97;24.75;;;;;;;6.89;93.89;101403.69;4977771;28;20421;-83
2022/03/29 08:25:31;;;;;;;70.00;23.98;;;;;;;6.88;92.92;101404.53;4982501;28;20554;-83
2022/03/29 08:27:57;;;;;;;71.70;24.67;;;;;;;6.88;93.03;101397.66;4984207;28;20064;-83
2022/03/29 08:30:26;;;;;;;70.28;24.85;;;;;;;6.90;92.85;101401.06;4978594;28;20125;-83
2022/03/29 08:32:53;;;;;;;71.38;23.80;;;;;;;6.89;93.03;101395.94;4986473;28;20027;-83
2022/03/29 08:35:18;;;;;;;68.75;23.95;;;;;;;6.87;93.05;101395.94;4972818;28;20071;-83
2022/03/29 08:37:46;;;;;;;70.50;23.85;;;;;;;6.86;92.38;101396.78;4973992;28;20050;-83
2022/03/29 08:40:14;;;;;;;70.57;24.13;;;;;;;6.87;93.32;101387.34;4986702;28;20033;-83
2022/03/29 08:42:42;;;;;;;75.38;25.73;;;;;;;6.90;93.76;101390.78;4974147;28;20084;-83
2022/03/29 08:45:09;;;;;;;72.85;23.73;;;;;;;6.97;93.04;101389.03;4984825;28;20084;-84
2022/03/29 08:47:39;;;;;;;73.45;23.27;;;;;;;6.99;93.03;101387.34;4965820;28;20039;-84
2022/03/29 08:50:05;;;;;;;66.20;22.77;;;;;;;7.00;92.78;101381.34;4973842;28;20043;-84
2022/03/29 08:52:32;;;;;;;71.20;25.13;;;;;;;7.05;92.66;101388.19;4961008;28;20065;-84
2022/03/29 08:54:57;;;;;;;80.47;28.23;;;;;;;7.10;92.50;101391.63;4963160;28;20027;-84
2022/03/29 08:57:23;;;;;;;70.80;26.17;;;;;;;7.12;92.12;101389.91;5002965;28;20401;-84
2022/03/29 08:59:48;;;;;;;70.43;23.70;;;;;;;7.17;92.66;101378.72;5000514;28;20030;-84
2022/03/29 09:02:16;;;;;;;73.63;27.60;;;;;;;7.21;91.75;101388.19;4965071;28;20029;-84
2022/03/29 09:04:43;;;;;;;72.68;26.50;;;;;;;7.23;91.75;101384.75;4963694;28;20130;-84
2022/03/29 09:07:08;;;;;;;58.15;21.67;;;;;;;7.24;91.24;101393.31;4970662;28;20548;-84
2022/03/29 09:09:40;;;;;;;68.95;22.65;;;;;;;7.20;91.53;101394.19;4960850;28;20122;-84
2022/03/29 09:12:18;;;;;;;63.63;22.00;;;;;;;7.21;92.34;101399.38;4968960;28;20038;-84
2022/03/29 09:14:58;;;;;;;70.95;23.30;;;;;;;7.26;92.09;101397.63;4972070;28;20465;-84
2022/03/29 09:17:56;;;;;;;62.20;22.75;;;;;;;7.28;91.52;101395.06;4968853;28;20030;-83
2022/03/29 09:20:24;;;;;;;66.10;23.05;;;;;;;7.32;91.86;101389.03;5004781;28;20053;-83
2022/03/29 09:22:55;;;;;;;64.85;22.55;;;;;;;7.36;91.35;101390.75;4980231;28;20376;-83
2022/03/29 09:25:34;;;;;;;55.03;20.75;;;;;;;7.35;91.41;101384.72;4976065;28;20025;-84
2022/03/29 09:28:02;;;;;;;59.75;21.70;;;;;;;7.33;91.34;101388.16;4980961;28;20031;-84
2022/03/29 09:30:40;;;;;;;63.08;21.42;;;;;;;7.33;91.44;101385.59;4966383;28;20415;-84
2022/03/29 09:33:12;;;;;;;60.17;21.60;;;;;;;7.34;91.35;101390.75;4979418;28;20125;-84
2022/03/29 09:35:59;;;;;;;62.45;22.17;;;;;;;7.39;91.04;101388.16;4975944;28;20073;-83
2022/03/29 09:38:29;;;;;;;63.88;22.35;;;;;;;7.42;91.57;101389.03;4979182;28;20029;-83
2022/03/29 09:40:56;;;;;;;62.92;21.75;;;;;;;7.46;90.94;101393.28;4978323;28;20031;-84
2022/03/29 09:43:24;;;;;;;64.22;22.75;;;;;;;7.56;91.17;101383.81;4976457;28;20487;-84
2022/03/29 09:45:51;;;;;;;61.33;21.17;;;;;;;7.67;91.30;101376.91;4979566;28;20384;-84
2022/03/29 09:48:37;;;;;;;60.92;22.73;;;;;;;7.78;90.17;101380.28;4975047;28;20046;-84
2022/03/29 09:51:08;;;;;;;60.45;22.00;;;;;;;7.86;90.00;101375.97;4976919;28;20077;-84
2022/03/29 09:53:51;;;;;;;62.80;22.20;;;;;;;7.94;89.00;101374.22;4972464;28;20037;-84
2022/03/29 09:56:24;;;;;;;60.88;21.33;;;;;;;8.00;89.31;101373.31;4976724;28;20122;-83
2022/03/29 09:59:09;;;;;;;64.97;22.88;;;;;;;8.09;88.34;101372.44;4971274;28;20121;-83
2022/03/29 10:01:57;;;;;;;68.25;22.88;;;;;;;8.16;87.69;101376.69;4982547;28;20022;-84
2022/03/29 10:04:24;;;;;;;64.30;22.48;;;;;;;8.09;87.55;101365.53;4972780;28;20023;-84
2022/03/29 10:06:56;;;;;;;64.75;22.98;;;;;;;7.99;87.92;101366.44;4977550;28;20066;-84
2022/03/29 10:09:32;;;;;;;68.47;24.70;;;;;;;7.93;88.41;101363.88;5012106;28;20113;-84
2022/03/29 10:12:00;;;;;;;72.25;25.08;;;;;;;7.88;88.73;101358.75;4971682;28;20113;-84
2022/03/29 10:14:27;;;;;;;67.07;23.67;;;;;;;7.84;88.66;101349.31;4981354;28;20097;-84
2022/03/29 10:16:53;;;;;;;77.68;26.85;;;;;;;7.79;89.08;101347.59;4976335;28;20030;-84
2022/03/29 10:19:20;;;;;;;66.82;24.35;;;;;;;7.82;89.59;101348.47;4985484;28;20320;-84
2022/03/29 10:21:46;;;;;;;73.93;26.15;;;;;;;7.82;89.59;101340.72;4974401;28;20035;-84
2022/03/29 10:24:13;;;;;;;76.70;25.92;;;;;;;7.86;89.42;101344.13;4979848;28;20049;-83
2022/03/29 10:26:42;;;;;;;71.80;24.98;;;;;;;7.93;89.54;101344.09;4972502;28;20027;-84
2022/03/29 10:29:08;;;;;;;65.43;23.70;;;;;;;8.00;88.39;101339.75;4972426;28;20018;-84
2022/03/29 10:31:41;;;;;;;73.07;24.77;;;;;;;8.10;88.86;101340.59;4963459;28;20033;-83
2022/03/29 10:34:16;;;;;;;71.20;24.63;;;;;;;8.19;88.80;101335.34;4967634;28;20082;-84
2022/03/29 10:37:16;;;;;;;73.88;26.42;;;;;;;8.40;87.82;101329.22;4971949;28;20030;-84
2022/03/29 10:40:00;;;;;;;72.95;25.58;;;;;;;8.43;86.13;101324.91;4981539;28;20492;-84
2022/03/29 10:42:46;;;;;;;71.22;26.15;;;;;;;8.61;86.87;101323.91;5000701;28;20105;-84
2022/03/29 10:45:29;;;;;;;71.60;24.83;;;;;;;8.88;85.14;101335.72;4974125;28;20034;-83
2022/03/29 10:48:00;;;;;;;67.40;25.63;;;;;;;9.01;84.74;101324.41;4973786;28;20137;-84
2022/03/29 10:50:50;;;;;;;70.47;26.08;;;;;;;9.29;83.07;101333.59;4981549;28;20037;-84
2022/03/29 10:53:28;;;;;;;71.75;26.13;;;;;;;9.49;82.59;101329.06;4975133;28;20046;-84
2022/03/29 10:56:19;;;;;;;63.03;25.50;;;;;;;9.67;81.63;101332.31;4975861;28;20106;-84
2022/03/29 10:59:02;;;;;;;61.88;24.77;;;;;;;9.72;80.91;101325.34;5006190;28;20511;-84
2022/03/29 11:01:28;;;;;;;65.20;24.90;;;;;;;9.83;80.01;101318.28;4976047;28;20034;-84
2022/03/29 11:04:01;;;;;;;59.22;24.60;;;;;;;9.89;77.87;101318.25;4984107;28;20030;-84
2022/03/29 11:06:26;;;;;;;56.58;24.27;;;;;;;9.89;77.55;101306.13;4971008;28;20055;-84
2022/03/29 11:09:06;;;;;;;53.20;23.17;;;;;;;10.10;78.51;101309.31;4976930;28;20039;-84
2022/03/29 11:11:50;;;;;;;57.35;23.60;;;;;;;10.35;77.51;101297.75;4971213;28;20035;-84
2022/03/29 11:14:29;;;;;;;54.33;23.40;;;;;;;10.53;76.36;101306.94;4976700;28;20050;-84
2022/03/29 11:17:17;;;;;;;53.70;24.25;;;;;;;10.56;74.39;101299.13;5006831;28;20109;-84
2022/03/29 11:19:44;;;;;;;50.90;22.50;;;;;;;10.51;74.50;101295.75;4979686;28;20038;-84
2022/03/29 11:22:25;;;;;;;52.33;23.85;;;;;;;10.55;74.69;101285.31;4978909;28;20030;-84
2022/03/29 11:24:56;;;;;;;50.90;23.58;;;;;;;10.57;74.34;101288.75;4969984;28;20031;-83
2022/03/29 11:27:32;;;;;;;52.33;23.00;;;;;;;10.59;74.33;101276.59;5004808;28;20026;-84